Time,TemperatureF,DewpointF,PressureIn,WindDirection,WindDirectionDegrees,WindSpeedMPH,WindSpeedGustMPH,Humidity,HourlyPrecipIn,Conditions,Clouds,dailyrainin,SolarRadiationWatts/m^2,SoftwareType,DateUTC
2013-06-18 00:02:00,52.0,41.0,-100.00,SW,223,6.0,11.0,66,0.00,,,0.00,1.000000,,2013-06-18 07:02:00,
2013-06-18 00:12:00,52.0,41.0,-100.00,SW,223,6.0,11.0,66,0.00,,,0.00,1.000000,,2013-06-18 07:12:00,
2013-06-18 00:22:00,52.0,41.0,-100.00,SW,223,6.0,11.0,66,0.00,,,0.00,1.000000,,2013-06-18 07:22:00,
2013-06-18 00:53:00,51.0,42.0,-100.00,SW,216,4.0,8.0,70,0.00,,,0.00,1.000000,,2013-06-18 07:53:00,
2013-06-18 01:01:00,51.0,42.0,-100.00,SW,216,4.0,8.0,70,0.00,,,0.00,1.000000,,2013-06-18 08:01:00,
2013-06-18 01:11:00,51.0,42.0,-100.00,SW,216,4.0,8.0,70,0.00,,,0.00,1.000000,,2013-06-18 08:11:00,
2013-06-18 01:23:00,51.0,42.0,-100.00,SW,216,4.0,8.0,70,0.00,,,0.00,1.000000,,2013-06-18 08:23:00,
2013-06-18 01:52:00,50.0,42.0,-100.00,SSW,204,4.0,7.0,74,0.00,,,0.00,1.000000,,2013-06-18 08:52:00,
2013-06-18 02:01:00,50.0,42.0,-100.00,SSW,204,4.0,7.0,74,0.00,,,0.00,1.000000,,2013-06-18 09:01:00,
2013-06-18 02:11:00,50.0,42.0,-100.00,SSW,204,4.0,7.0,74,0.00,,,0.00,1.000000,,2013-06-18 09:11:00,
2013-06-18 02:22:00,50.0,42.0,-100.00,SSW,204,4.0,7.0,74,0.00,,,0.00,1.000000,,2013-06-18 09:22:00,
2013-06-18 02:43:00,49.0,43.0,-100.00,SSW,207,5.0,8.0,79,0.00,,,0.00,1.000000,,2013-06-18 09:43:00,
2013-06-18 02:53:00,49.0,43.0,-100.00,SSW,207,5.0,8.0,79,0.00,,,0.00,1.000000,,2013-06-18 09:53:00,
2013-06-18 03:01:00,49.0,43.0,-100.00,SSW,207,5.0,8.0,79,0.00,,,0.00,1.000000,,2013-06-18 10:01:00,
2013-06-18 03:11:00,49.0,43.0,-100.00,SSW,207,5.0,8.0,79,0.00,,,0.00,1.000000,,2013-06-18 10:11:00,
2013-06-18 03:22:00,49.0,43.0,-100.00,SSW,207,5.0,8.0,79,0.00,,,0.00,1.000000,,2013-06-18 10:22:00,
2013-06-18 03:53:00,47.0,45.0,-100.00,SSW,204,4.0,8.0,91,0.00,,,0.00,1.000000,,2013-06-18 10:53:00,
2013-06-18 04:02:00,47.0,45.0,-100.00,SSW,204,4.0,8.0,91,0.00,,,0.00,1.000000,,2013-06-18 11:02:00,
2013-06-18 04:11:00,47.0,45.0,-100.00,SSW,204,4.0,8.0,91,0.00,,,0.00,1.000000,,2013-06-18 11:11:00,
2013-06-18 04:22:00,47.0,45.0,-100.00,SSW,204,4.0,8.0,91,0.00,,,0.00,1.000000,,2013-06-18 11:22:00,
2013-06-18 04:43:00,47.0,43.0,-100.00,SSW,193,2.0,7.0,87,0.00,,,0.00,1.000000,,2013-06-18 11:43:00,
2013-06-18 04:52:00,47.0,43.0,-100.00,SSW,193,2.0,7.0,87,0.00,,,0.00,1.000000,,2013-06-18 11:52:00,
2013-06-18 05:01:00,47.0,43.0,-100.00,SSW,193,2.0,7.0,87,0.00,,,0.00,1.000000,,2013-06-18 12:01:00,
2013-06-18 05:11:00,47.0,43.0,-100.00,SSW,193,2.0,7.0,87,0.00,,,0.00,1.000000,,2013-06-18 12:11:00,
2013-06-18 05:22:00,47.0,43.0,-100.00,SSW,193,2.0,7.0,87,0.00,,,0.00,1.000000,,2013-06-18 12:22:00,
2013-06-18 05:52:00,45.0,42.0,-100.00,SSW,213,4.0,8.0,88,0.00,,,0.00,1.000000,,2013-06-18 12:52:00,
2013-06-18 06:02:00,45.0,42.0,-100.00,SSW,213,4.0,8.0,88,0.00,,,0.00,1.000000,,2013-06-18 13:02:00,
2013-06-18 06:11:00,45.0,42.0,-100.00,SSW,213,4.0,8.0,88,0.00,,,0.00,1.000000,,2013-06-18 13:11:00,
2013-06-18 06:22:00,45.0,42.0,-100.00,SSW,213,4.0,8.0,88,0.00,,,0.00,1.000000,,2013-06-18 13:22:00,
2013-06-18 06:53:00,45.0,42.0,-100.00,SSW,205,2.0,4.0,89,0.00,,,0.00,20.000000,,2013-06-18 13:53:00,
2013-06-18 07:02:00,45.0,42.0,-100.00,SSW,205,2.0,4.0,89,0.00,,,0.00,20.000000,,2013-06-18 14:02:00,
2013-06-18 07:11:00,45.0,42.0,-100.00,SSW,205,2.0,4.0,89,0.00,,,0.00,20.000000,,2013-06-18 14:11:00,
2013-06-18 07:22:00,45.0,42.0,-100.00,SSW,205,2.0,4.0,89,0.00,,,0.00,20.000000,,2013-06-18 14:22:00,
2013-06-18 07:53:00,47.0,43.0,-100.00,SSW,199,2.0,4.0,86,0.00,,,0.00,58.000000,,2013-06-18 14:53:00,
2013-06-18 08:02:00,47.0,43.0,-100.00,SSW,199,2.0,4.0,86,0.00,,,0.00,58.000000,,2013-06-18 15:02:00,
2013-06-18 08:11:00,47.0,43.0,-100.00,SSW,199,2.0,4.0,86,0.00,,,0.00,58.000000,,2013-06-18 15:11:00,
2013-06-18 08:22:00,47.0,43.0,-100.00,SSW,199,2.0,4.0,86,0.00,,,0.00,58.000000,,2013-06-18 15:22:00,
2013-06-18 08:53:00,48.0,41.0,-100.00,SW,215,2.0,4.0,76,0.00,,,0.00,117.000000,,2013-06-18 15:53:00,
2013-06-18 09:01:00,48.0,41.0,-100.00,SW,215,2.0,4.0,76,0.00,,,0.00,117.000000,,2013-06-18 16:01:00,
2013-06-18 09:11:00,48.0,41.0,-100.00,SW,215,2.0,4.0,76,0.00,,,0.00,117.000000,,2013-06-18 16:11:00,
2013-06-18 09:22:00,48.0,41.0,-100.00,SW,215,2.0,4.0,76,0.00,,,0.00,117.000000,,2013-06-18 16:22:00,
2013-06-18 09:53:00,48.0,44.0,-100.00,SSW,200,4.0,6.0,85,0.01,,,0.01,154.000000,,2013-06-18 16:53:00,
2013-06-18 10:02:00,48.0,44.0,-100.00,SSW,200,4.0,6.0,85,0.01,,,0.01,154.000000,,2013-06-18 17:02:00,
2013-06-18 10:11:00,48.0,44.0,-100.00,SSW,200,4.0,6.0,85,0.01,,,0.01,154.000000,,2013-06-18 17:11:00,
2013-06-18 10:22:00,48.0,44.0,-100.00,SSW,200,4.0,6.0,85,0.01,,,0.01,154.000000,,2013-06-18 17:22:00,
2013-06-18 10:53:00,53.0,43.0,-100.00,South,170,3.0,5.0,70,0.00,,,0.01,289.000000,,2013-06-18 17:53:00,
2013-06-18 11:01:00,53.0,43.0,-100.00,South,170,3.0,5.0,70,0.00,,,0.01,289.000000,,2013-06-18 18:01:00,
2013-06-18 11:11:00,53.0,43.0,-100.00,South,170,3.0,5.0,70,0.00,,,0.01,289.000000,,2013-06-18 18:11:00,
2013-06-18 11:22:00,53.0,43.0,-100.00,South,170,3.0,5.0,70,0.00,,,0.01,289.000000,,2013-06-18 18:22:00,
2013-06-18 11:53:00,58.0,41.0,-100.00,SSW,194,3.0,7.0,54,0.00,,,0.01,558.000000,,2013-06-18 18:53:00,
2013-06-18 12:01:00,58.0,41.0,-100.00,SSW,194,3.0,7.0,54,0.00,,,0.01,558.000000,,2013-06-18 19:01:00,
2013-06-18 12:11:00,58.0,41.0,-100.00,SSW,194,3.0,7.0,54,0.00,,,0.01,558.000000,,2013-06-18 19:11:00,
2013-06-18 12:22:00,58.0,41.0,-100.00,SSW,194,3.0,7.0,54,0.00,,,0.01,558.000000,,2013-06-18 19:22:00,
2013-06-18 12:52:00,54.0,43.0,-100.00,North,5,4.0,9.0,67,0.00,,,0.01,383.000000,,2013-06-18 19:52:00,
2013-06-18 13:01:00,54.0,43.0,-100.00,North,5,4.0,9.0,67,0.00,,,0.01,383.000000,,2013-06-18 20:01:00,
2013-06-18 13:11:00,54.0,43.0,-100.00,North,5,4.0,9.0,67,0.00,,,0.01,383.000000,,2013-06-18 20:11:00,
2013-06-18 13:22:00,54.0,43.0,-100.00,North,5,4.0,9.0,67,0.00,,,0.01,383.000000,,2013-06-18 20:22:00,
2013-06-18 13:43:00,55.0,42.0,-100.00,NNE,27,4.0,10.0,61,0.00,,,0.01,559.000000,,2013-06-18 20:43:00,
2013-06-18 13:52:00,55.0,42.0,-100.00,NNE,27,4.0,10.0,61,0.00,,,0.01,559.000000,,2013-06-18 20:52:00,
2013-06-18 14:01:00,55.0,42.0,-100.00,NNE,27,4.0,10.0,61,0.00,,,0.01,559.000000,,2013-06-18 21:01:00,
2013-06-18 14:11:00,55.0,42.0,-100.00,NNE,27,4.0,10.0,61,0.00,,,0.01,559.000000,,2013-06-18 21:11:00,
2013-06-18 14:22:00,55.0,42.0,-100.00,NNE,27,4.0,10.0,61,0.00,,,0.01,559.000000,,2013-06-18 21:22:00,
2013-06-18 14:52:00,54.0,50.0,-100.00,ENE,63,3.0,7.0,86,0.06,,,-99.99,308.000000,,2013-06-18 21:52:00,
2013-06-18 15:01:00,54.0,50.0,-100.00,ENE,63,3.0,7.0,86,0.06,,,-99.99,308.000000,,2013-06-18 22:01:00,
2013-06-18 15:11:00,54.0,50.0,-100.00,ENE,63,3.0,7.0,86,0.06,,,-99.99,308.000000,,2013-06-18 22:11:00,
2013-06-18 15:22:00,54.0,50.0,-100.00,ENE,63,3.0,7.0,86,0.06,,,-99.99,308.000000,,2013-06-18 22:22:00,
2013-06-18 15:53:00,52.0,46.0,-100.00,ENE,71,2.0,7.0,81,0.00,,,0.07,304.000000,,2013-06-18 22:53:00,
2013-06-18 16:01:00,52.0,46.0,-100.00,ENE,71,2.0,7.0,81,0.00,,,0.07,304.000000,,2013-06-18 23:01:00,
2013-06-18 16:11:00,52.0,46.0,-100.00,ENE,71,2.0,7.0,81,0.00,,,0.07,304.000000,,2013-06-18 23:11:00,
2013-06-18 16:23:00,52.0,46.0,-100.00,ENE,71,2.0,7.0,81,0.00,,,0.07,304.000000,,2013-06-18 23:23:00,
2013-06-18 16:53:00,55.0,45.0,-100.00,ENE,65,3.0,9.0,69,0.00,,,0.07,417.000000,,2013-06-18 23:53:00,
2013-06-18 17:01:00,55.0,45.0,-100.00,ENE,65,3.0,9.0,69,0.00,,,0.07,417.000000,,2013-06-19 00:01:00,
2013-06-18 17:11:00,55.0,45.0,-100.00,ENE,65,3.0,9.0,69,0.00,,,0.07,417.000000,,2013-06-19 00:11:00,
2013-06-18 17:22:00,55.0,45.0,-100.00,ENE,65,3.0,9.0,69,0.00,,,0.07,417.000000,,2013-06-19 00:22:00,
2013-06-18 17:53:00,53.0,43.0,-100.00,ENE,58,1.0,6.0,69,0.00,,,0.07,118.000000,,2013-06-19 00:53:00,
2013-06-18 18:01:00,53.0,43.0,-100.00,ENE,58,1.0,6.0,69,0.00,,,0.07,118.000000,,2013-06-19 01:01:00,
2013-06-18 18:11:00,53.0,43.0,-100.00,ENE,58,1.0,6.0,69,0.00,,,0.07,118.000000,,2013-06-19 01:11:00,
2013-06-18 18:22:00,53.0,43.0,-100.00,ENE,58,1.0,6.0,69,0.00,,,0.07,118.000000,,2013-06-19 01:22:00,
2013-06-18 18:53:00,50.0,43.0,-100.00,East,90,4.0,7.0,77,0.01,,,0.08,135.000000,,2013-06-19 01:53:00,
2013-06-18 19:01:00,50.0,43.0,-100.00,East,90,4.0,7.0,77,0.01,,,0.08,135.000000,,2013-06-19 02:01:00,
2013-06-18 19:11:00,50.0,43.0,-100.00,East,90,4.0,7.0,77,0.01,,,0.08,135.000000,,2013-06-19 02:11:00,
2013-06-18 19:21:00,50.0,43.0,-100.00,East,90,4.0,7.0,77,0.01,,,0.08,135.000000,,2013-06-19 02:21:00,
2013-06-18 19:52:00,48.0,40.0,-100.00,ENE,71,3.0,9.0,75,0.00,,,0.08,56.000000,,2013-06-19 02:52:00,
2013-06-18 20:01:00,48.0,40.0,-100.00,ENE,71,3.0,9.0,75,0.00,,,0.08,56.000000,,2013-06-19 03:01:00,
2013-06-18 20:11:00,48.0,40.0,-100.00,ENE,71,3.0,9.0,75,0.00,,,0.08,56.000000,,2013-06-19 03:11:00,
2013-06-18 20:21:00,48.0,40.0,-100.00,ENE,71,3.0,9.0,75,0.00,,,0.08,56.000000,,2013-06-19 03:21:00,
2013-06-18 20:52:00,45.0,40.0,-100.00,SE,140,2.0,6.0,83,0.00,,,0.08,9.000000,,2013-06-19 03:52:00,
2013-06-18 21:01:00,45.0,40.0,-100.00,SE,140,2.0,6.0,83,0.00,,,0.08,9.000000,,2013-06-19 04:01:00,
2013-06-18 21:11:00,45.0,40.0,-100.00,SE,140,2.0,6.0,83,0.00,,,0.08,9.000000,,2013-06-19 04:11:00,
2013-06-18 21:22:00,45.0,40.0,-100.00,SE,140,2.0,6.0,83,0.00,,,0.08,9.000000,,2013-06-19 04:22:00,
2013-06-18 21:53:00,43.0,41.0,-100.00,SSE,152,3.0,7.0,92,0.01,,,-99.99,2.000000,,2013-06-19 04:53:00,
2013-06-18 22:01:00,43.0,41.0,-100.00,SSE,152,3.0,7.0,92,0.01,,,-99.99,2.000000,,2013-06-19 05:01:00,
2013-06-18 22:11:00,43.0,41.0,-100.00,SSE,152,3.0,7.0,92,0.01,,,-99.99,2.000000,,2013-06-19 05:11:00,
2013-06-18 22:22:00,43.0,41.0,-100.00,SSE,152,3.0,7.0,92,0.01,,,-99.99,2.000000,,2013-06-19 05:22:00,
2013-06-18 22:52:00,42.0,38.0,-100.00,SSW,203,6.0,9.0,84,0.00,,,0.09,1.000000,,2013-06-19 05:52:00,
2013-06-18 23:01:00,42.0,38.0,-100.00,SSW,203,6.0,9.0,84,0.00,,,0.09,1.000000,,2013-06-19 06:01:00,
2013-06-18 23:11:00,42.0,38.0,-100.00,SSW,203,6.0,9.0,84,0.00,,,0.09,1.000000,,2013-06-19 06:11:00,
2013-06-18 23:21:00,42.0,38.0,-100.00,SSW,203,6.0,9.0,84,0.00,,,0.09,1.000000,,2013-06-19 06:21:00,
2013-06-18 23:43:00,42.0,38.0,-100.00,SSW,201,5.0,9.0,84,0.00,,,0.09,1.000000,,2013-06-19 06:43:00,
2013-06-18 23:52:00,42.0,38.0,-100.00,SSW,201,5.0,9.0,84,0.00,,,0.09,1.000000,,2013-06-19 06:52:00,